createdAt,value
2022-11-26T00:02:18.978Z,87.37
2022-11-26T00:04:47.108Z,79.67
2022-11-26T00:07:16.894Z,83.40
2022-11-26T00:09:45.052Z,81.40
2022-11-26T00:12:18.320Z,78.93
2022-11-26T00:14:47.224Z,80.83
2022-11-26T00:17:17.782Z,80.93
2022-11-26T00:19:46.472Z,81.53
2022-11-26T00:22:24.394Z,79.73
2022-11-26T00:24:53.131Z,79.00
2022-11-26T00:27:21.479Z,75.23
2022-11-26T00:29:49.467Z,77.30
2022-11-26T00:32:21.472Z,75.20
2022-11-26T00:34:49.570Z,70.17
2022-11-26T00:37:21.052Z,75.87
2022-11-26T00:39:49.427Z,79.07
2022-11-26T00:42:18.007Z,84.10
2022-11-26T00:44:46.035Z,78.63
2022-11-26T00:47:14.031Z,78.63
2022-11-26T00:49:43.380Z,77.10
2022-11-26T00:52:25.812Z,74.50
2022-11-26T00:54:54.016Z,73.10
2022-11-26T00:57:22.038Z,68.67
2022-11-26T00:59:50.010Z,71.23
2022-11-26T01:02:18.044Z,68.57
2022-11-26T01:04:47.399Z,70.70
2022-11-26T01:07:15.563Z,74.80
2022-11-26T01:09:47.515Z,74.47
2022-11-26T01:12:16.465Z,74.87
2022-11-26T01:14:44.458Z,76.60
2022-11-26T01:17:13.131Z,72.57
2022-11-26T01:19:41.152Z,77.53
2022-11-26T01:22:20.913Z,74.27
2022-11-26T01:24:49.409Z,74.67
2022-11-26T01:27:18.521Z,71.53
2022-11-26T01:29:46.523Z,74.77
2022-11-26T01:32:14.525Z,76.27
2022-11-26T01:34:42.522Z,77.57
2022-11-26T01:37:15.516Z,76.13
2022-11-26T01:39:43.518Z,81.80
2022-11-26T01:42:25.784Z,81.20
2022-11-26T01:44:54.032Z,78.37
2022-11-26T01:47:24.679Z,80.10
2022-11-26T01:50:29.951Z,79.23
2022-11-26T01:53:02.235Z,77.70
2022-11-26T01:55:35.761Z,80.80
2022-11-26T01:58:05.087Z,78.07
2022-11-26T02:00:33.084Z,80.93
2022-11-26T02:03:01.674Z,79.27
2022-11-26T02:05:32.591Z,81.73
2022-11-26T02:08:03.257Z,86.13
2022-11-26T02:10:31.299Z,87.27
2022-11-26T02:12:59.392Z,85.40
2022-11-26T02:15:32.104Z,86.10
2022-11-26T02:18:04.529Z,88.40
2022-11-26T02:20:46.549Z,88.87
2022-11-26T02:23:55.235Z,86.10
2022-11-26T02:26:59.041Z,85.17
2022-11-26T02:29:45.551Z,83.60
2022-11-26T02:32:18.852Z,89.63
2022-11-26T02:34:55.786Z,88.57
2022-11-26T02:37:29.593Z,90.43
2022-11-26T02:39:58.148Z,94.57
2022-11-26T02:42:29.955Z,91.33
2022-11-26T02:45:03.837Z,90.37
2022-11-26T02:47:34.878Z,86.80
2022-11-26T02:50:07.480Z,92.87
2022-11-26T02:52:36.333Z,93.43
2022-11-26T02:55:09.080Z,88.90
2022-11-26T02:57:43.407Z,94.50
2022-11-26T03:00:14.316Z,97.93
2022-11-26T03:02:47.994Z,89.77
2022-11-26T03:05:17.868Z,89.43
2022-11-26T03:07:47.536Z,89.03
2022-11-26T03:10:15.999Z,82.67
2022-11-26T03:12:44.019Z,86.13
2022-11-26T03:15:13.600Z,83.93
2022-11-26T03:17:41.575Z,86.77
2022-11-26T03:20:10.070Z,86.47
2022-11-26T03:22:40.927Z,86.60
2022-11-26T03:25:10.115Z,85.20
2022-11-26T03:27:38.199Z,82.87
2022-11-26T03:30:07.600Z,84.27
2022-11-26T03:32:37.252Z,81.47
2022-11-26T03:35:06.424Z,78.07
2022-11-26T03:37:34.430Z,79.40
2022-11-26T03:40:02.623Z,75.97
2022-11-26T03:42:30.595Z,73.63
2022-11-26T03:44:58.591Z,74.17
2022-11-26T03:47:27.276Z,74.17
2022-11-26T03:49:56.654Z,73.10
2022-11-26T03:52:24.623Z,71.40
2022-11-26T03:54:52.611Z,70.13
2022-11-26T03:57:22.088Z,71.53
2022-11-26T03:59:50.092Z,69.37
2022-11-26T04:02:18.086Z,68.10
2022-11-26T04:04:46.080Z,65.93
2022-11-26T04:07:15.446Z,66.23
2022-11-26T04:09:43.435Z,66.97
2022-11-26T04:12:11.452Z,68.70
2022-11-26T04:14:39.673Z,67.70
2022-11-26T04:17:07.783Z,64.57
2022-11-26T04:19:35.744Z,67.67
2022-11-26T04:22:03.753Z,67.60
2022-11-26T04:24:33.126Z,66.53
2022-11-26T04:27:01.112Z,66.33
2022-11-26T04:29:29.070Z,67.43
2022-11-26T04:31:57.181Z,68.13
2022-11-26T04:34:25.196Z,70.03
2022-11-26T04:36:53.227Z,67.13
2022-11-26T04:39:21.223Z,67.77
2022-11-26T04:41:50.713Z,67.33
2022-11-26T04:44:18.712Z,65.90
2022-11-26T04:46:46.700Z,66.10
2022-11-26T04:49:15.108Z,66.90
2022-11-26T04:51:43.177Z,67.50
2022-11-26T04:54:13.145Z,66.27
2022-11-26T04:56:41.762Z,65.93
2022-11-26T04:59:11.178Z,70.03
2022-11-26T05:01:39.265Z,68.40
2022-11-26T05:04:07.342Z,68.60
2022-11-26T05:06:35.607Z,67.47
2022-11-26T05:09:03.620Z,67.90
2022-11-26T05:11:31.622Z,65.57
2022-11-26T05:14:00.311Z,63.73
2022-11-26T05:16:29.757Z,63.97
2022-11-26T05:18:57.763Z,61.43
2022-11-26T05:21:25.719Z,64.07
2022-11-26T05:23:53.711Z,64.10
2022-11-26T05:26:21.748Z,62.63
2022-11-26T05:28:49.831Z,65.80
2022-11-26T05:31:19.374Z,60.40
2022-11-26T05:33:48.768Z,60.13
2022-11-26T05:36:16.763Z,61.63
2022-11-26T05:38:44.786Z,61.63
2022-11-26T05:41:12.816Z,63.27
2022-11-26T05:43:40.898Z,58.97
2022-11-26T05:46:09.901Z,61.83
2022-11-26T05:48:37.932Z,59.10
2022-11-26T05:51:07.608Z,58.73
2022-11-26T05:53:35.611Z,60.37
2022-11-26T05:56:03.705Z,57.10
2022-11-26T05:58:31.731Z,55.70
2022-11-26T06:00:59.709Z,55.07
2022-11-26T06:03:27.959Z,60.37
2022-11-26T06:05:56.047Z,60.47
2022-11-26T06:08:25.389Z,53.63
2022-11-26T06:10:53.381Z,52.77
2022-11-26T06:13:21.415Z,50.13
2022-11-26T06:15:49.463Z,48.03
2022-11-26T06:18:17.468Z,51.50
2022-11-26T06:20:45.921Z,49.53
2022-11-26T06:23:13.920Z,46.80
2022-11-26T06:25:43.658Z,47.30
2022-11-26T06:28:11.847Z,48.27
2022-11-26T06:30:39.902Z,52.27
2022-11-26T06:33:07.938Z,45.90
2022-11-26T06:35:35.992Z,47.60
2022-11-26T06:38:03.981Z,46.80
2022-11-26T06:40:31.950Z,45.77
2022-11-26T06:43:01.349Z,44.77
2022-11-26T06:45:29.444Z,44.90
2022-11-26T06:47:57.448Z,44.50
2022-11-26T06:50:25.462Z,45.27
2022-11-26T06:52:54.416Z,43.10
2022-11-26T06:55:22.850Z,44.73
2022-11-26T06:57:52.094Z,43.57
2022-11-26T07:00:22.552Z,43.53
2022-11-26T07:02:50.608Z,45.23
2022-11-26T07:05:19.041Z,42.93
2022-11-26T07:07:49.405Z,43.10
2022-11-26T07:10:17.799Z,43.93
2022-11-26T07:12:45.858Z,43.07
2022-11-26T07:15:13.866Z,42.07
2022-11-26T07:17:44.628Z,42.73
2022-11-26T07:20:13.883Z,44.50
2022-11-26T07:22:41.946Z,45.90
2022-11-26T07:25:12.707Z,42.43
2022-11-26T07:27:41.096Z,43.53
2022-11-26T07:30:11.529Z,45.00
2022-11-26T07:32:39.616Z,44.43
2022-11-26T07:35:11.979Z,45.03
2022-11-26T07:37:39.988Z,45.00
2022-11-26T07:40:09.157Z,43.03
2022-11-26T07:42:37.279Z,43.77
2022-11-26T07:45:08.227Z,45.47
2022-11-26T07:47:36.290Z,45.77
2022-11-26T07:50:04.908Z,45.00
2022-11-26T07:52:34.283Z,45.13
2022-11-26T07:55:02.476Z,46.50
2022-11-26T07:57:30.447Z,47.03
2022-11-26T07:59:58.504Z,48.57
2022-11-26T08:02:26.547Z,47.93
2022-11-26T08:04:54.568Z,48.23
2022-11-26T08:07:27.705Z,47.47
2022-11-26T08:09:59.012Z,49.97
2022-11-26T08:12:27.422Z,51.73
2022-11-26T08:14:55.452Z,52.00
2022-11-26T08:17:23.451Z,54.80
2022-11-26T08:19:51.478Z,53.20
2022-11-26T08:22:19.526Z,53.70
2022-11-26T08:24:47.528Z,55.57
2022-11-26T08:27:17.232Z,56.07
2022-11-26T08:29:45.873Z,54.43
2022-11-26T08:32:13.891Z,56.07
2022-11-26T08:34:42.063Z,57.23
2022-11-26T08:37:10.185Z,53.70
2022-11-26T08:39:39.286Z,53.53
2022-11-26T08:42:07.357Z,54.17
2022-11-26T08:44:37.132Z,52.57
2022-11-26T08:47:05.353Z,52.17
2022-11-26T08:49:33.348Z,51.60
2022-11-26T08:52:01.395Z,52.30
2022-11-26T08:54:29.519Z,51.27
2022-11-26T08:56:57.498Z,50.67
2022-11-26T08:59:25.532Z,52.50
2022-11-26T09:01:55.035Z,51.87
2022-11-26T09:04:23.115Z,52.43
2022-11-26T09:06:53.922Z,53.30
2022-11-26T09:09:21.951Z,52.97
2022-11-26T09:11:52.109Z,52.10
2022-11-26T09:14:22.899Z,54.60
2022-11-26T09:16:50.978Z,53.80
2022-11-26T09:19:20.687Z,54.47
2022-11-26T09:21:52.037Z,52.63
2022-11-26T09:24:21.237Z,53.10
2022-11-26T09:26:50.726Z,53.33
2022-11-26T09:29:21.070Z,52.17
2022-11-26T09:32:21.274Z,50.70
2022-11-26T09:34:39.660Z,52.87
2022-11-26T09:37:08.394Z,50.63
2022-11-26T09:39:36.431Z,51.80
2022-11-26T09:42:07.939Z,53.20
2022-11-26T09:45:00.029Z,54.87
2022-11-26T09:47:32.248Z,53.00
2022-11-26T09:50:19.831Z,52.73
2022-11-26T09:52:54.174Z,52.07
2022-11-26T09:55:25.225Z,52.40
2022-11-26T09:58:00.344Z,50.57
2022-11-26T10:00:32.325Z,52.17
2022-11-26T10:03:01.804Z,51.37
2022-11-26T10:05:43.727Z,52.07
2022-11-26T10:08:26.610Z,51.30
2022-11-26T10:11:03.859Z,50.73
2022-11-26T10:13:42.852Z,49.87
2022-11-26T10:16:20.494Z,49.37
2022-11-26T10:18:59.430Z,48.70
2022-11-26T10:21:57.653Z,48.50
2022-11-26T10:24:28.776Z,48.80
2022-11-26T10:26:58.663Z,49.50
2022-11-26T10:29:29.087Z,49.63
2022-11-26T10:32:02.353Z,51.70
2022-11-26T10:34:39.857Z,51.37
2022-11-26T10:37:09.611Z,53.30
2022-11-26T10:39:37.838Z,51.37
2022-11-26T10:42:14.484Z,52.40
2022-11-26T10:44:43.096Z,52.67
2022-11-26T10:47:23.707Z,52.13
2022-11-26T10:49:53.304Z,51.10
2022-11-26T10:52:26.399Z,52.23
2022-11-26T10:55:21.993Z,54.27
2022-11-26T10:57:53.668Z,53.97
2022-11-26T11:00:40.109Z,54.97
2022-11-26T11:03:17.175Z,54.83
2022-11-26T11:05:45.866Z,54.37
2022-11-26T11:08:17.497Z,55.03
2022-11-26T11:10:56.392Z,56.83
2022-11-26T11:13:25.926Z,56.93
2022-11-26T11:16:03.232Z,56.10
2022-11-26T11:18:35.323Z,55.33
2022-11-26T11:21:05.384Z,56.27
2022-11-26T11:24:07.022Z,56.27
2022-11-26T11:26:30.880Z,53.80
2022-11-26T11:28:58.964Z,55.90
2022-11-26T11:31:28.908Z,55.73
2022-11-26T11:34:14.396Z,55.20
2022-11-26T11:36:42.399Z,54.83
2022-11-26T11:39:29.040Z,56.83
2022-11-26T11:41:58.899Z,53.57
2022-11-26T11:44:32.376Z,53.97
2022-11-26T11:47:20.540Z,55.47
2022-11-26T11:50:12.782Z,55.87
2022-11-26T11:52:48.891Z,54.07
2022-11-26T11:55:27.991Z,54.30
2022-11-26T11:58:16.588Z,54.93
2022-11-26T12:00:53.481Z,54.17
2022-11-26T12:03:45.013Z,52.90
2022-11-26T12:06:26.401Z,53.67
2022-11-26T12:09:03.740Z,53.53
2022-11-26T12:11:46.310Z,52.33
2022-11-26T12:14:21.389Z,52.20
2022-11-26T12:16:58.355Z,53.40
2022-11-26T12:19:35.398Z,52.13
2022-11-26T12:22:12.112Z,51.90
2022-11-26T12:24:46.354Z,51.07
2022-11-26T12:27:28.856Z,51.80
2022-11-26T12:30:01.084Z,51.63
2022-11-26T12:32:35.860Z,52.83
2022-11-26T12:35:08.402Z,51.47
2022-11-26T12:37:41.026Z,49.60
2022-11-26T12:40:22.778Z,49.63
2022-11-26T12:42:58.319Z,49.53
2022-11-26T12:45:39.850Z,48.43
2022-11-26T12:48:19.722Z,48.33
2022-11-26T12:50:53.929Z,48.27
2022-11-26T12:53:33.434Z,47.87
2022-11-26T12:56:10.146Z,46.27
2022-11-26T12:58:47.337Z,47.20
2022-11-26T13:01:15.742Z,45.67
2022-11-26T13:03:43.979Z,48.17
2022-11-26T13:06:27.763Z,46.50
2022-11-26T13:09:01.972Z,46.80
2022-11-26T13:11:40.172Z,44.40
2022-11-26T13:14:18.712Z,46.70
2022-11-26T13:16:54.941Z,44.67
2022-11-26T13:19:31.759Z,44.43
2022-11-26T13:22:22.995Z,44.77
2022-11-26T13:25:04.271Z,45.87
2022-11-26T13:27:48.168Z,44.00
2022-11-26T13:30:22.307Z,44.30
2022-11-26T13:33:21.372Z,43.50
2022-11-26T13:36:25.073Z,44.00
2022-11-26T13:39:05.843Z,44.93
2022-11-26T13:42:13.544Z,44.97
2022-11-26T13:45:13.969Z,43.70
2022-11-26T13:47:47.438Z,41.97
2022-11-26T13:50:19.779Z,43.73
2022-11-26T13:52:53.928Z,40.60
2022-11-26T13:55:26.769Z,41.27
2022-11-26T13:57:57.404Z,39.83
2022-11-26T14:00:27.539Z,39.17
2022-11-26T14:02:57.638Z,41.63
2022-11-26T14:06:07.967Z,41.63
2022-11-26T14:08:38.505Z,39.17
2022-11-26T14:11:07.304Z,41.40
2022-11-26T14:13:35.681Z,42.20
2022-11-26T14:16:09.046Z,40.00
2022-11-26T14:19:00.744Z,39.10
2022-11-26T14:21:33.150Z,38.27
2022-11-26T14:24:02.443Z,36.77
2022-11-26T14:26:37.634Z,37.70
2022-11-26T14:29:13.208Z,38.97
2022-11-26T14:31:49.527Z,38.20
2022-11-26T14:34:24.519Z,39.03
2022-11-26T14:36:55.118Z,40.27
2022-11-26T14:39:23.455Z,42.17
2022-11-26T14:41:57.895Z,44.30
2022-11-26T14:44:30.219Z,41.83
2022-11-26T14:47:02.015Z,42.30
2022-11-26T14:49:36.220Z,41.33
2022-11-26T14:52:06.815Z,41.13
2022-11-26T14:54:40.215Z,42.20
2022-11-26T14:57:13.446Z,42.83
2022-11-26T14:59:56.702Z,43.20
2022-11-26T15:02:26.863Z,43.27
2022-11-26T15:05:02.398Z,43.33
2022-11-26T15:07:31.417Z,42.83
2022-11-26T15:10:04.910Z,42.73
2022-11-26T15:12:34.512Z,42.60
2022-11-26T15:15:04.205Z,45.20
2022-11-26T15:17:36.070Z,44.10
2022-11-26T15:20:08.992Z,43.90
2022-11-26T15:22:39.115Z,45.07
2022-11-26T15:25:17.627Z,43.50
2022-11-26T15:27:54.256Z,46.07
2022-11-26T15:30:24.685Z,44.87
2022-11-26T15:32:58.980Z,45.83
2022-11-26T15:35:29.284Z,44.80
2022-11-26T15:37:57.589Z,45.57
2022-11-26T15:40:32.590Z,45.30
2022-11-26T15:43:04.217Z,46.33
2022-11-26T15:45:38.275Z,46.50
2022-11-26T15:48:07.837Z,44.80
2022-11-26T15:50:39.518Z,46.30
2022-11-26T15:53:15.917Z,44.40
2022-11-26T15:55:47.639Z,47.33
2022-11-26T15:58:21.774Z,43.97
2022-11-26T16:00:53.316Z,44.90
2022-11-26T16:03:43.304Z,44.80
2022-11-26T16:06:32.218Z,45.40
2022-11-26T16:09:03.637Z,43.47
2022-11-26T16:11:36.570Z,43.37
2022-11-26T16:14:25.063Z,43.87
2022-11-26T16:16:53.820Z,42.13
2022-11-26T16:19:22.993Z,44.00
2022-11-26T16:21:53.922Z,42.53
2022-11-26T16:24:30.680Z,43.30
2022-11-26T16:27:00.840Z,42.40
2022-11-26T16:29:30.588Z,43.23
2022-11-26T16:31:58.894Z,44.67
2022-11-26T16:34:27.875Z,45.00
2022-11-26T16:37:03.135Z,44.77
2022-11-26T16:39:37.460Z,44.47
2022-11-26T16:42:14.973Z,44.77
2022-11-26T16:44:43.021Z,42.27
2022-11-26T16:47:15.888Z,45.23
2022-11-26T16:49:43.993Z,44.87
2022-11-26T16:52:17.643Z,45.43
2022-11-26T16:54:45.715Z,44.07
2022-11-26T16:57:16.523Z,44.23
2022-11-26T16:59:45.371Z,43.10
2022-11-26T17:02:17.700Z,42.03
2022-11-26T17:04:46.336Z,43.40
2022-11-26T17:07:19.750Z,45.13
2022-11-26T17:09:54.352Z,42.53
2022-11-26T17:12:25.259Z,41.50
2022-11-26T17:14:59.811Z,36.70
2022-11-26T17:17:33.489Z,38.40
2022-11-26T17:20:01.589Z,35.80
2022-11-26T17:22:32.936Z,37.53
2022-11-26T17:25:04.009Z,32.13
2022-11-26T17:27:32.000Z,31.40
2022-11-26T17:30:00.069Z,24.23
2022-11-26T17:32:28.082Z,19.23
2022-11-26T17:34:56.080Z,20.13
2022-11-26T17:37:27.422Z,17.20
2022-11-26T17:40:00.199Z,17.03
2022-11-26T17:42:32.161Z,17.90
2022-11-26T17:45:03.079Z,16.10
2022-11-26T17:47:32.564Z,16.00
2022-11-26T17:50:00.718Z,15.70
2022-11-26T17:52:28.779Z,16.03
2022-11-26T17:54:58.176Z,15.60
2022-11-26T17:57:28.214Z,15.57
2022-11-26T17:59:58.791Z,15.70
2022-11-26T18:02:26.891Z,14.77
2022-11-26T18:04:54.946Z,15.73
2022-11-26T18:07:22.981Z,14.60
2022-11-26T18:09:54.526Z,15.27
2022-11-26T18:12:26.056Z,15.47
2022-11-26T18:14:54.993Z,14.73
2022-11-26T18:17:23.173Z,14.83
2022-11-26T18:19:51.445Z,13.30
2022-11-26T18:22:21.704Z,13.57
2022-11-26T18:24:56.433Z,14.07
2022-11-26T18:27:29.123Z,11.80
2022-11-26T18:29:57.642Z,11.57
2022-11-26T18:32:25.707Z,12.80
2022-11-26T18:34:54.172Z,12.23
2022-11-26T18:37:22.257Z,12.20
2022-11-26T18:39:50.386Z,12.70
2022-11-26T18:45:10.735Z,13.57
2022-11-26T18:47:38.917Z,13.73
2022-11-26T18:50:08.441Z,15.67
2022-11-26T18:52:36.545Z,14.70
2022-11-26T18:55:08.066Z,15.40
2022-11-26T18:57:39.226Z,16.07
2022-11-26T19:00:12.210Z,16.20
2022-11-26T19:02:40.312Z,16.90
2022-11-26T19:05:11.616Z,17.37
2022-11-26T19:07:40.222Z,17.90
2022-11-26T19:10:09.348Z,17.20
2022-11-26T19:12:37.378Z,17.63
2022-11-26T19:15:06.383Z,19.13
2022-11-26T19:17:35.969Z,21.77
2022-11-26T19:20:04.034Z,23.37
2022-11-26T19:22:32.025Z,24.77
2022-11-26T19:25:00.005Z,25.57
2022-11-26T19:27:28.008Z,23.50
2022-11-26T19:29:56.228Z,26.17
2022-11-26T19:32:24.796Z,25.70
2022-11-26T19:34:55.092Z,26.27
2022-11-26T19:37:23.107Z,26.03
2022-11-26T19:39:51.467Z,27.00
2022-11-26T19:42:19.477Z,26.47
2022-11-26T19:44:47.592Z,26.13
2022-11-26T19:47:15.887Z,25.37
2022-11-26T19:49:43.893Z,25.50
2022-11-26T19:52:13.301Z,25.60
2022-11-26T19:54:41.334Z,26.10
2022-11-26T19:57:09.338Z,25.53
2022-11-26T19:59:37.514Z,25.30
2022-11-26T20:02:05.651Z,25.20
2022-11-26T20:04:33.641Z,24.97
2022-11-26T20:07:01.678Z,26.00
2022-11-26T20:09:31.092Z,25.20
2022-11-26T20:12:01.893Z,26.03
2022-11-26T20:14:32.527Z,24.33
2022-11-26T20:17:01.256Z,25.37
2022-11-26T20:19:29.616Z,25.93
2022-11-26T20:21:57.631Z,25.40
2022-11-26T20:24:25.812Z,24.17
2022-11-26T20:26:55.321Z,23.73
2022-11-26T20:29:23.814Z,24.17
2022-11-26T20:31:53.054Z,22.90
2022-11-26T20:34:23.315Z,24.00
2022-11-26T20:36:53.287Z,23.07
2022-11-26T20:39:25.487Z,24.50
2022-11-26T20:41:54.891Z,23.07
2022-11-26T20:44:24.623Z,23.07
2022-11-26T20:46:57.023Z,23.37
2022-11-26T20:49:28.417Z,22.77
2022-11-26T20:52:01.548Z,22.43
2022-11-26T20:54:32.116Z,23.30
2022-11-26T20:57:02.148Z,23.50
2022-11-26T20:59:45.000Z,22.73
2022-11-26T21:02:13.398Z,23.23
2022-11-26T21:04:41.465Z,24.33
2022-11-26T21:07:10.826Z,23.37
2022-11-26T21:09:39.111Z,24.57
2022-11-26T21:12:10.977Z,24.57
2022-11-26T21:14:40.860Z,24.30
2022-11-26T21:17:09.465Z,24.63
2022-11-26T21:19:40.287Z,25.40
2022-11-26T21:22:13.167Z,24.33
2022-11-26T21:24:41.218Z,23.17
2022-11-26T21:27:10.631Z,24.33
2022-11-26T21:29:38.852Z,25.77
2022-11-26T21:32:07.433Z,23.83
2022-11-26T21:34:35.460Z,24.47
2022-11-26T21:37:05.786Z,23.87
2022-11-26T21:39:34.063Z,24.97
2022-11-26T21:42:05.676Z,24.47
2022-11-26T21:44:35.100Z,23.97
2022-11-26T21:47:03.792Z,23.33
2022-11-26T21:49:34.764Z,24.43
2022-11-26T21:52:03.015Z,23.63
2022-11-26T21:54:36.439Z,22.87
2022-11-26T21:57:04.720Z,23.77
2022-11-26T21:59:34.306Z,20.50
2022-11-26T22:02:03.936Z,22.33
2022-11-26T22:04:34.304Z,22.47
2022-11-26T22:07:02.467Z,20.83
2022-11-26T22:09:30.578Z,22.63
2022-11-26T22:11:58.951Z,21.33
2022-11-26T22:14:27.058Z,21.00
2022-11-26T22:16:57.093Z,21.33
2022-11-26T22:19:25.297Z,21.03
2022-11-26T22:21:53.366Z,19.50
2022-11-26T22:24:21.493Z,19.73
2022-11-26T22:26:51.578Z,18.97
2022-11-26T22:29:20.692Z,18.73
2022-11-26T22:31:50.309Z,18.50
2022-11-26T22:34:21.976Z,18.80
2022-11-26T22:36:50.268Z,17.87
2022-11-26T22:39:20.065Z,18.10
2022-11-26T22:41:49.191Z,18.03
2022-11-26T22:44:18.344Z,18.47
2022-11-26T22:46:47.071Z,18.10
2022-11-26T22:49:17.788Z,17.93
2022-11-26T22:51:48.009Z,18.43
2022-11-26T22:54:17.961Z,17.47
2022-11-26T22:56:46.084Z,16.90
2022-11-26T22:59:15.309Z,17.53
2022-11-26T23:01:43.498Z,17.63
2022-11-26T23:04:12.211Z,17.37
2022-11-26T23:06:40.395Z,16.63
2022-11-26T23:09:10.933Z,15.83
2022-11-26T23:11:40.830Z,15.60
2022-11-26T23:14:12.147Z,15.30
2022-11-26T23:16:42.259Z,14.53
2022-11-26T23:19:12.051Z,14.73
2022-11-26T23:21:42.676Z,13.63
2022-11-26T23:24:12.497Z,14.70
2022-11-26T23:26:41.364Z,13.53
2022-11-26T23:29:10.028Z,12.83
2022-11-26T23:31:40.635Z,13.60
2022-11-26T23:34:10.108Z,13.60
2022-11-26T23:36:38.454Z,13.63
2022-11-26T23:39:08.371Z,13.30
2022-11-26T23:41:38.148Z,13.43
2022-11-26T23:44:06.407Z,14.97
2022-11-26T23:46:35.795Z,15.47
2022-11-26T23:49:04.644Z,18.40
2022-11-26T23:51:33.963Z,20.63
2022-11-26T23:54:02.208Z,21.07
2022-11-26T23:56:32.807Z,23.83
2022-11-26T23:59:03.830Z,23.30
